createdAt,value
2022-11-18T00:04:15.275Z,99428.44
2022-11-18T00:09:17.015Z,99430.28
2022-11-18T00:14:27.168Z,99440.31
2022-11-18T00:19:31.186Z,99444.06
2022-11-18T00:24:32.726Z,99444.47
2022-11-18T00:29:34.314Z,99453.00
2022-11-18T00:34:35.834Z,99459.28
2022-11-18T00:39:37.342Z,99452.31
2022-11-18T00:44:38.826Z,99474.06
2022-11-18T00:49:40.348Z,99471.34
2022-11-18T00:54:41.841Z,99465.47
2022-11-18T00:59:43.349Z,99473.16
2022-11-18T01:04:44.810Z,99485.22
2022-11-18T01:09:46.306Z,99486.47
2022-11-18T01:14:47.785Z,99490.03
2022-11-18T01:19:49.281Z,99494.81
2022-11-18T01:24:50.748Z,99499.41
2022-11-18T01:29:52.200Z,99510.66
2022-11-18T01:34:53.728Z,99521.16
2022-11-18T01:39:55.222Z,99531.34
2022-11-18T01:45:19.582Z,99531.72
2022-11-18T01:50:22.382Z,99543.25
2022-11-18T01:55:27.243Z,99540.91
2022-11-18T02:00:28.806Z,99544.66
2022-11-18T02:05:33.673Z,99552.16
2022-11-18T02:10:35.224Z,99556.09
2022-11-18T02:15:42.709Z,99561.72
2022-11-18T02:20:47.347Z,99574.63
2022-11-18T02:26:12.552Z,99579.59
2022-11-18T02:31:27.335Z,99572.34
2022-11-18T02:36:37.830Z,99581.84
2022-11-18T02:41:42.349Z,99586.25
2022-11-18T02:46:48.746Z,99590.63
2022-11-18T02:51:51.543Z,99600.47
2022-11-18T02:56:55.054Z,99589.78
2022-11-18T03:01:56.811Z,99603.19
2022-11-18T03:07:05.777Z,99612.66
2022-11-18T03:12:19.372Z,99617.25
2022-11-18T03:17:39.077Z,99617.66
2022-11-18T03:22:55.064Z,99618.19
2022-11-18T03:28:19.296Z,99626.50
2022-11-18T03:33:28.887Z,99628.09
2022-11-18T03:38:34.661Z,99646.91
2022-11-18T03:43:48.331Z,99653.56
2022-11-18T03:48:55.265Z,99653.28
2022-11-18T03:54:08.578Z,99664.78
2022-11-18T03:59:17.168Z,99670.59
2022-11-18T04:04:19.444Z,99687.25
2022-11-18T04:09:30.716Z,99688.28
2022-11-18T04:14:35.544Z,99699.16
2022-11-18T04:19:37.584Z,99693.91
2022-11-18T04:24:39.788Z,99702.91
2022-11-18T04:29:41.293Z,99703.91
2022-11-18T04:34:42.798Z,99709.31
2022-11-18T04:39:44.268Z,99719.53
2022-11-18T04:44:45.769Z,99727.50
2022-11-18T04:49:47.279Z,99728.53
2022-11-18T04:54:48.878Z,99722.25
2022-11-18T04:59:50.339Z,99725.63
2022-11-18T05:04:51.846Z,99726.84
2022-11-18T05:09:53.334Z,99727.19
2022-11-18T05:14:54.785Z,99733.47
2022-11-18T05:19:56.359Z,99743.50
2022-11-18T05:24:57.951Z,99754.53
2022-11-18T05:29:59.522Z,99765.41
2022-11-18T05:35:01.043Z,99778.97
2022-11-18T05:40:02.561Z,99779.66
2022-11-18T05:45:04.347Z,99788.63
2022-11-18T05:50:06.503Z,99796.44
2022-11-18T05:55:09.456Z,99802.56
2022-11-18T06:00:11.721Z,99804.25
2022-11-18T06:05:14.469Z,99811.56
2022-11-18T06:10:21.057Z,99816.81
2022-11-18T06:15:31.005Z,99812.88
2022-11-18T06:20:35.866Z,99820.50
2022-11-18T06:25:41.311Z,99825.78
2022-11-18T06:30:43.139Z,99838.13
2022-11-18T06:35:44.746Z,99852.22
2022-11-18T06:40:46.373Z,99857.66
2022-11-18T06:46:09.523Z,99865.28
2022-11-18T06:51:11.250Z,99876.66
2022-11-18T06:56:15.319Z,99888.00
2022-11-18T07:01:22.447Z,99894.31
2022-11-18T07:06:26.582Z,99902.94
2022-11-18T07:11:28.620Z,99912.13
2022-11-18T07:16:30.150Z,99921.13
2022-11-18T07:21:31.685Z,99922.50
2022-11-18T07:26:33.870Z,99940.84
2022-11-18T07:31:38.965Z,99945.25
2022-11-18T07:36:40.495Z,99947.66
2022-11-18T07:41:42.060Z,99961.56
2022-11-18T07:46:43.713Z,99970.88
2022-11-18T07:51:45.213Z,99975.28
2022-11-18T07:56:46.721Z,99977.47
2022-11-18T08:01:48.433Z,99989.38
2022-11-18T08:06:49.919Z,99995.66
2022-11-18T08:11:51.381Z,100002.97
2022-11-18T08:16:52.900Z,100017.94
2022-11-18T08:21:54.665Z,100008.94
2022-11-18T08:26:56.192Z,100027.91
2022-11-18T08:31:57.706Z,100030.47
2022-11-18T08:36:59.275Z,100037.41
2022-11-18T08:42:00.792Z,100036.75
2022-11-18T08:47:02.897Z,100052.03
2022-11-18T08:52:05.150Z,100054.31
2022-11-18T08:57:08.358Z,100068.94
2022-11-18T09:02:20.102Z,100060.97
2022-11-18T09:07:22.126Z,100070.16
2022-11-18T09:12:23.676Z,100072.69
2022-11-18T09:17:25.174Z,100081.69
2022-11-18T09:22:26.690Z,100083.72
2022-11-18T09:27:28.186Z,100085.09
2022-11-18T09:32:29.655Z,100096.63
2022-11-18T09:37:31.169Z,100104.28
2022-11-18T09:42:32.616Z,100113.59
2022-11-18T09:47:35.441Z,100113.44
2022-11-18T09:52:43.849Z,100113.94
2022-11-18T09:57:51.040Z,100120.91
2022-11-18T10:02:55.495Z,100134.31
2022-11-18T10:08:14.052Z,100139.75
2022-11-18T10:13:23.442Z,100145.03
2022-11-18T10:24:24.111Z,100154.88
2022-11-18T10:29:26.486Z,100168.59
2022-11-18T10:34:28.032Z,100165.03
2022-11-18T10:39:30.726Z,100171.53
2022-11-18T10:44:34.047Z,100176.13
2022-11-18T10:49:39.139Z,100180.34
2022-11-18T10:54:41.443Z,100187.31
2022-11-18T10:59:51.116Z,100183.56
2022-11-18T11:04:53.740Z,100194.63
2022-11-18T11:10:10.369Z,100203.31
2022-11-18T11:15:18.139Z,100202.97
2022-11-18T11:20:25.387Z,100202.44
2022-11-18T11:31:31.226Z,100207.91
2022-11-18T11:36:38.373Z,100216.72
2022-11-18T11:42:15.220Z,100216.38
2022-11-18T11:47:50.429Z,100220.97
2022-11-18T11:53:00.540Z,100223.84
2022-11-18T11:58:17.170Z,100218.75
2022-11-18T12:03:54.280Z,100230.81
2022-11-18T12:09:07.979Z,100233.84
2022-11-18T12:14:17.015Z,100236.06
2022-11-18T12:19:21.241Z,100231.50
2022-11-18T12:24:27.342Z,100243.03
2022-11-18T12:29:50.516Z,100234.19
2022-11-18T12:35:23.203Z,100231.25
2022-11-18T12:40:42.432Z,100240.25
2022-11-18T12:45:45.877Z,100251.16
2022-11-18T12:50:49.725Z,100252.00
2022-11-18T12:55:51.454Z,100253.34
2022-11-18T13:01:08.096Z,100264.09
2022-11-18T13:06:25.357Z,100264.84
2022-11-18T13:11:44.810Z,100258.34
2022-11-18T13:17:04.601Z,100272.59
2022-11-18T13:22:35.941Z,100267.28
2022-11-18T13:27:52.561Z,100274.59
2022-11-18T13:32:58.863Z,100290.94
2022-11-18T13:38:03.514Z,100298.28
2022-11-18T13:43:05.056Z,100295.63
2022-11-18T13:48:12.951Z,100308.56
2022-11-18T13:53:31.465Z,100316.22
2022-11-18T13:59:16.436Z,100316.56
2022-11-18T14:04:22.188Z,100317.91
2022-11-18T14:09:31.131Z,100322.69
2022-11-18T14:14:35.746Z,100332.50
2022-11-18T14:19:38.353Z,100329.75
2022-11-18T14:24:40.943Z,100344.31
2022-11-18T14:29:49.790Z,100349.25
2022-11-18T14:35:00.891Z,100361.81
2022-11-18T14:40:02.409Z,100362.00
2022-11-18T14:45:04.059Z,100363.88
2022-11-18T14:50:12.588Z,100369.56
2022-11-18T14:55:14.052Z,100380.78
2022-11-18T15:00:16.346Z,100396.69
2022-11-18T15:05:17.898Z,100380.84
2022-11-18T15:10:19.414Z,100405.16
2022-11-18T15:15:21.345Z,100407.88
2022-11-18T15:20:23.337Z,100406.91
2022-11-18T15:25:24.794Z,100410.53
2022-11-18T15:30:26.506Z,100418.31
2022-11-18T15:35:27.999Z,100427.22
2022-11-18T15:40:29.532Z,100423.00
2022-11-18T15:45:30.985Z,100427.72
2022-11-18T15:50:32.500Z,100433.06
2022-11-18T15:55:34.021Z,100442.16
2022-11-18T16:00:35.469Z,100441.59
2022-11-18T16:05:36.913Z,100462.44
2022-11-18T16:10:57.042Z,100462.56
2022-11-18T16:15:58.516Z,100464.66
2022-11-18T16:21:00.526Z,100471.28
2022-11-18T16:26:02.051Z,100477.59
2022-11-18T16:31:22.172Z,100475.66
2022-11-18T16:36:27.210Z,100487.41
2022-11-18T16:41:31.456Z,100508.06
2022-11-18T16:46:35.203Z,100509.00
2022-11-18T16:51:36.987Z,100516.59
2022-11-18T16:56:40.428Z,100518.84
2022-11-18T17:01:42.105Z,100541.53
2022-11-18T17:06:44.082Z,100530.03
2022-11-18T17:11:45.567Z,100536.00
2022-11-18T17:16:47.423Z,100543.03
2022-11-18T17:21:50.592Z,100551.41
2022-11-18T17:26:52.500Z,100562.41
2022-11-18T17:31:54.495Z,100564.25
2022-11-18T17:36:58.275Z,100580.75
2022-11-18T17:42:15.233Z,100582.47
2022-11-18T17:47:17.180Z,100598.28
2022-11-18T17:52:19.326Z,100603.25
2022-11-18T17:57:20.851Z,100612.97
2022-11-18T18:02:22.305Z,100617.53
2022-11-18T18:07:23.919Z,100631.16
2022-11-18T18:12:44.212Z,100646.78
2022-11-18T18:17:49.531Z,100635.94
2022-11-18T18:22:51.154Z,100664.03
2022-11-18T18:27:52.709Z,100652.25
2022-11-18T18:32:54.258Z,100660.78
2022-11-18T18:37:55.937Z,100666.72
2022-11-18T18:42:57.440Z,100667.41
2022-11-18T18:48:03.698Z,100665.28
2022-11-18T18:53:05.145Z,100672.66
2022-11-18T18:58:06.672Z,100690.69
2022-11-18T19:03:08.213Z,100685.41
2022-11-18T19:08:10.066Z,100679.97
2022-11-18T19:13:11.569Z,100688.34
2022-11-18T19:18:13.144Z,100700.28
2022-11-18T19:23:14.825Z,100697.09
2022-11-18T19:28:16.311Z,100710.91
2022-11-18T19:33:17.830Z,100706.28
2022-11-18T19:38:19.400Z,100729.84
2022-11-18T19:43:20.981Z,100735.88
2022-11-18T19:48:23.444Z,100733.97
2022-11-18T19:53:34.964Z,100735.81
2022-11-18T19:58:39.846Z,100753.72
2022-11-18T20:03:52.861Z,100752.03
2022-11-18T20:08:55.810Z,100756.50
2022-11-18T20:13:57.295Z,100772.81
2022-11-18T20:19:05.187Z,100778.13
2022-11-18T20:24:16.017Z,100779.00
2022-11-18T20:29:17.805Z,100770.31
2022-11-18T20:34:19.605Z,100783.06
2022-11-18T20:39:21.949Z,100778.53
2022-11-18T20:44:23.763Z,100780.47
2022-11-18T20:49:25.236Z,100801.06
2022-11-18T20:54:26.704Z,100816.13
2022-11-18T20:59:28.174Z,100828.50
2022-11-18T21:04:29.770Z,100839.78
2022-11-18T21:09:32.871Z,100838.22
2022-11-18T21:14:34.436Z,100845.84
2022-11-18T21:19:35.968Z,100843.69
2022-11-18T21:24:37.872Z,100854.97
2022-11-18T21:29:39.378Z,100851.34
2022-11-18T21:34:40.890Z,100861.91
2022-11-18T21:39:42.482Z,100867.31
2022-11-18T21:44:44.006Z,100872.78
2022-11-18T21:49:45.544Z,100875.81
2022-11-18T21:54:47.030Z,100882.22
2022-11-18T21:59:48.469Z,100888.53
2022-11-18T22:04:52.510Z,100887.84
2022-11-18T22:09:55.220Z,100897.81
2022-11-18T22:14:56.726Z,100906.81
2022-11-18T22:19:58.275Z,100912.63
2022-11-18T22:24:59.781Z,100911.69
2022-11-18T22:30:01.500Z,100913.34
2022-11-18T22:35:03.200Z,100909.13
2022-11-18T22:40:05.137Z,100918.28
2022-11-18T22:45:07.409Z,100918.06
2022-11-18T22:50:10.619Z,100914.34
2022-11-18T22:55:12.079Z,100912.53
2022-11-18T23:00:14.124Z,100922.97
2022-11-18T23:05:15.667Z,100927.81
2022-11-18T23:10:17.136Z,100931.66
2022-11-18T23:15:18.669Z,100948.25
2022-11-18T23:20:20.115Z,100946.53
2022-11-18T23:25:21.597Z,100964.50
2022-11-18T23:30:23.112Z,100966.56
2022-11-18T23:35:24.735Z,100972.22
2022-11-18T23:40:26.214Z,100975.69
2022-11-18T23:45:27.733Z,100983.41
2022-11-18T23:50:29.250Z,100988.22
2022-11-18T23:55:30.712Z,100993.19
